sensor_id;sensor_type;location;lat;lon;timestamp;P1;durP1;ratioP1;P2;durP2;ratioP2
20623;SDS011;10471;42.736;23.346;2023-02-21T00:01:44;10.23;;;5.27;;
20623;SDS011;10471;42.736;23.346;2023-02-21T00:04:28;8.57;;;4.37;;
20623;SDS011;10471;42.736;23.346;2023-02-21T00:07:12;13.17;;;5.60;;
20623;SDS011;10471;42.736;23.346;2023-02-21T00:09:56;12.83;;;5.73;;
20623;SDS011;10471;42.736;23.346;2023-02-21T00:12:40;12.30;;;4.93;;
20623;SDS011;10471;42.736;23.346;2023-02-21T00:15:24;7.37;;;3.63;;
20623;SDS011;10471;42.736;23.346;2023-02-21T00:18:08;4.90;;;3.00;;
20623;SDS011;10471;42.736;23.346;2023-02-21T00:20:51;6.07;;;2.73;;
20623;SDS011;10471;42.736;23.346;2023-02-21T00:23:36;8.60;;;3.03;;
20623;SDS011;10471;42.736;23.346;2023-02-21T00:26:20;10.07;;;3.83;;
20623;SDS011;10471;42.736;23.346;2023-02-21T00:29:04;15.03;;;6.40;;
20623;SDS011;10471;42.736;23.346;2023-02-21T00:31:48;15.20;;;7.03;;
20623;SDS011;10471;42.736;23.346;2023-02-21T00:34:32;9.83;;;4.60;;
20623;SDS011;10471;42.736;23.346;2023-02-21T00:37:16;10.17;;;5.13;;
20623;SDS011;10471;42.736;23.346;2023-02-21T00:40:00;8.87;;;4.60;;
20623;SDS011;10471;42.736;23.346;2023-02-21T00:42:44;12.87;;;6.10;;
20623;SDS011;10471;42.736;23.346;2023-02-21T00:45:27;15.07;;;7.27;;
20623;SDS011;10471;42.736;23.346;2023-02-21T00:48:11;11.57;;;5.70;;
20623;SDS011;10471;42.736;23.346;2023-02-21T00:50:55;14.87;;;6.60;;
20623;SDS011;10471;42.736;23.346;2023-02-21T00:53:39;22.03;;;8.77;;
20623;SDS011;10471;42.736;23.346;2023-02-21T00:56:23;48.83;;;21.43;;
20623;SDS011;10471;42.736;23.346;2023-02-21T00:59:07;27.30;;;12.17;;
20623;SDS011;10471;42.736;23.346;2023-02-21T01:01:51;12.80;;;6.30;;
20623;SDS011;10471;42.736;23.346;2023-02-21T01:04:35;12.00;;;6.70;;
20623;SDS011;10471;42.736;23.346;2023-02-21T01:07:19;13.87;;;6.10;;
20623;SDS011;10471;42.736;23.346;2023-02-21T01:10:03;6.43;;;3.33;;
20623;SDS011;10471;42.736;23.346;2023-02-21T01:12:46;9.63;;;5.37;;
20623;SDS011;10471;42.736;23.346;2023-02-21T01:15:30;8.83;;;4.50;;
20623;SDS011;10471;42.736;23.346;2023-02-21T01:18:14;12.93;;;5.57;;
20623;SDS011;10471;42.736;23.346;2023-02-21T01:20:58;12.37;;;7.27;;
20623;SDS011;10471;42.736;23.346;2023-02-21T01:23:42;14.60;;;7.90;;
20623;SDS011;10471;42.736;23.346;2023-02-21T01:26:26;11.87;;;6.10;;
20623;SDS011;10471;42.736;23.346;2023-02-21T01:29:10;12.60;;;6.20;;
20623;SDS011;10471;42.736;23.346;2023-02-21T01:31:54;4.40;;;3.10;;
20623;SDS011;10471;42.736;23.346;2023-02-21T01:34:38;5.17;;;2.87;;
20623;SDS011;10471;42.736;23.346;2023-02-21T01:37:22;14.53;;;6.63;;
20623;SDS011;10471;42.736;23.346;2023-02-21T01:40:06;10.03;;;4.97;;
20623;SDS011;10471;42.736;23.346;2023-02-21T01:42:50;11.23;;;5.70;;
20623;SDS011;10471;42.736;23.346;2023-02-21T01:45:40;13.80;;;8.13;;
20623;SDS011;10471;42.736;23.346;2023-02-21T01:48:28;11.43;;;6.40;;
20623;SDS011;10471;42.736;23.346;2023-02-21T01:51:14;13.00;;;6.83;;
20623;SDS011;10471;42.736;23.346;2023-02-21T01:54:01;13.20;;;6.13;;
20623;SDS011;10471;42.736;23.346;2023-02-21T01:56:46;18.90;;;11.13;;
20623;SDS011;10471;42.736;23.346;2023-02-21T01:59:31;22.40;;;11.90;;
20623;SDS011;10471;42.736;23.346;2023-02-21T02:02:23;22.43;;;12.03;;
20623;SDS011;10471;42.736;23.346;2023-02-21T02:05:12;13.17;;;6.57;;
20623;SDS011;10471;42.736;23.346;2023-02-21T02:07:57;47.43;;;24.47;;
20623;SDS011;10471;42.736;23.346;2023-02-21T02:10:41;22.83;;;12.17;;
20623;SDS011;10471;42.736;23.346;2023-02-21T02:27:33;16.53;;;8.77;;
20623;SDS011;10471;42.736;23.346;2023-02-21T02:35:55;16.53;;;8.30;;
20623;SDS011;10471;42.736;23.346;2023-02-21T02:38:32;19.90;;;9.87;;
20623;SDS011;10471;42.736;23.346;2023-02-21T02:41:02;18.13;;;9.43;;
20623;SDS011;10471;42.736;23.346;2023-02-21T02:46:37;20.87;;;10.63;;
20623;SDS011;10471;42.736;23.346;2023-02-21T02:49:09;18.83;;;10.37;;
20623;SDS011;10471;42.736;23.346;2023-02-21T02:51:43;19.43;;;10.13;;
20623;SDS011;10471;42.736;23.346;2023-02-21T02:54:09;22.70;;;12.70;;
20623;SDS011;10471;42.736;23.346;2023-02-21T02:56:34;18.03;;;10.60;;
20623;SDS011;10471;42.736;23.346;2023-02-21T03:15:31;13.50;;;7.07;;
20623;SDS011;10471;42.736;23.346;2023-02-21T03:18:05;14.00;;;7.83;;
20623;SDS011;10471;42.736;23.346;2023-02-21T03:20:56;18.27;;;9.53;;
20623;SDS011;10471;42.736;23.346;2023-02-21T03:23:25;13.20;;;7.97;;
20623;SDS011;10471;42.736;23.346;2023-02-21T03:25:55;14.80;;;8.60;;
20623;SDS011;10471;42.736;23.346;2023-02-21T03:28:23;15.30;;;9.00;;
20623;SDS011;10471;42.736;23.346;2023-02-21T03:30:50;16.57;;;8.27;;
20623;SDS011;10471;42.736;23.346;2023-02-21T03:33:19;16.27;;;8.70;;
20623;SDS011;10471;42.736;23.346;2023-02-21T03:35:44;17.77;;;10.37;;
20623;SDS011;10471;42.736;23.346;2023-02-21T03:38:10;33.17;;;19.20;;
20623;SDS011;10471;42.736;23.346;2023-02-21T03:40:35;17.97;;;10.90;;
20623;SDS011;10471;42.736;23.346;2023-02-21T03:43:01;24.87;;;13.03;;
20623;SDS011;10471;42.736;23.346;2023-02-21T03:45:29;29.03;;;17.30;;
20623;SDS011;10471;42.736;23.346;2023-02-21T03:47:54;10.47;;;6.40;;
20623;SDS011;10471;42.736;23.346;2023-02-21T03:50:20;10.67;;;4.63;;
20623;SDS011;10471;42.736;23.346;2023-02-21T03:52:45;10.97;;;6.50;;
20623;SDS011;10471;42.736;23.346;2023-02-21T03:55:10;20.00;;;11.80;;
20623;SDS011;10471;42.736;23.346;2023-02-21T03:57:36;21.70;;;12.83;;
20623;SDS011;10471;42.736;23.346;2023-02-21T04:00:01;21.27;;;11.53;;
20623;SDS011;10471;42.736;23.346;2023-02-21T04:02:27;14.97;;;8.63;;
20623;SDS011;10471;42.736;23.346;2023-02-21T04:04:53;26.17;;;14.17;;
20623;SDS011;10471;42.736;23.346;2023-02-21T04:07:19;25.67;;;14.90;;
20623;SDS011;10471;42.736;23.346;2023-02-21T04:09:45;23.50;;;13.50;;
20623;SDS011;10471;42.736;23.346;2023-02-21T04:12:11;20.93;;;9.93;;
20623;SDS011;10471;42.736;23.346;2023-02-21T04:14:37;23.63;;;12.20;;
20623;SDS011;10471;42.736;23.346;2023-02-21T04:17:02;22.47;;;11.67;;
20623;SDS011;10471;42.736;23.346;2023-02-21T04:19:28;25.97;;;13.83;;
20623;SDS011;10471;42.736;23.346;2023-02-21T04:21:53;29.27;;;16.23;;
20623;SDS011;10471;42.736;23.346;2023-02-21T04:24:19;37.27;;;19.30;;
20623;SDS011;10471;42.736;23.346;2023-02-21T04:26:44;46.23;;;24.63;;
20623;SDS011;10471;42.736;23.346;2023-02-21T04:29:10;23.70;;;14.17;;
20623;SDS011;10471;42.736;23.346;2023-02-21T04:31:35;18.90;;;10.17;;
20623;SDS011;10471;42.736;23.346;2023-02-21T04:34:00;17.77;;;10.97;;
20623;SDS011;10471;42.736;23.346;2023-02-21T04:36:26;11.97;;;6.83;;
20623;SDS011;10471;42.736;23.346;2023-02-21T04:38:51;7.37;;;4.53;;
20623;SDS011;10471;42.736;23.346;2023-02-21T04:41:17;31.60;;;10.40;;
20623;SDS011;10471;42.736;23.346;2023-02-21T04:43:43;22.13;;;8.70;;
20623;SDS011;10471;42.736;23.346;2023-02-21T04:46:10;14.33;;;7.50;;
20623;SDS011;10471;42.736;23.346;2023-02-21T04:48:40;18.67;;;8.87;;
20623;SDS011;10471;42.736;23.346;2023-02-21T04:51:09;10.70;;;5.43;;
20623;SDS011;10471;42.736;23.346;2023-02-21T04:53:35;13.17;;;6.67;;
20623;SDS011;10471;42.736;23.346;2023-02-21T04:56:00;10.13;;;4.73;;
20623;SDS011;10471;42.736;23.346;2023-02-21T04:58:25;10.77;;;5.77;;
20623;SDS011;10471;42.736;23.346;2023-02-21T05:00:51;7.53;;;4.00;;
20623;SDS011;10471;42.736;23.346;2023-02-21T05:03:16;10.03;;;7.70;;
20623;SDS011;10471;42.736;23.346;2023-02-21T05:05:42;12.83;;;6.77;;
20623;SDS011;10471;42.736;23.346;2023-02-21T05:08:08;11.50;;;6.60;;
20623;SDS011;10471;42.736;23.346;2023-02-21T05:10:33;9.27;;;6.60;;
20623;SDS011;10471;42.736;23.346;2023-02-21T05:12:58;13.23;;;6.97;;
20623;SDS011;10471;42.736;23.346;2023-02-21T05:15:24;12.20;;;5.60;;
20623;SDS011;10471;42.736;23.346;2023-02-21T05:17:49;10.40;;;4.80;;
20623;SDS011;10471;42.736;23.346;2023-02-21T05:20:15;14.83;;;6.90;;
20623;SDS011;10471;42.736;23.346;2023-02-21T05:22:41;21.03;;;9.90;;
20623;SDS011;10471;42.736;23.346;2023-02-21T05:25:13;24.63;;;11.97;;
20623;SDS011;10471;42.736;23.346;2023-02-21T05:27:48;50.73;;;23.97;;
20623;SDS011;10471;42.736;23.346;2023-02-21T05:30:15;143.43;;;57.80;;
20623;SDS011;10471;42.736;23.346;2023-02-21T05:32:42;48.43;;;23.70;;
20623;SDS011;10471;42.736;23.346;2023-02-21T05:35:08;24.40;;;12.03;;
20623;SDS011;10471;42.736;23.346;2023-02-21T05:37:34;12.80;;;7.60;;
20623;SDS011;10471;42.736;23.346;2023-02-21T05:40:00;13.30;;;6.93;;
20623;SDS011;10471;42.736;23.346;2023-02-21T05:42:25;13.43;;;7.40;;
20623;SDS011;10471;42.736;23.346;2023-02-21T05:44:50;25.47;;;13.13;;
20623;SDS011;10471;42.736;23.346;2023-02-21T05:47:16;28.70;;;15.43;;
20623;SDS011;10471;42.736;23.346;2023-02-21T05:49:41;29.57;;;13.50;;
20623;SDS011;10471;42.736;23.346;2023-02-21T05:52:09;21.57;;;11.07;;
20623;SDS011;10471;42.736;23.346;2023-02-21T05:54:36;21.13;;;10.33;;
20623;SDS011;10471;42.736;23.346;2023-02-21T05:57:01;20.27;;;9.53;;
20623;SDS011;10471;42.736;23.346;2023-02-21T05:59:27;13.53;;;6.97;;
20623;SDS011;10471;42.736;23.346;2023-02-21T06:01:52;17.03;;;8.33;;
20623;SDS011;10471;42.736;23.346;2023-02-21T06:04:18;84.67;;;59.47;;
20623;SDS011;10471;42.736;23.346;2023-02-21T06:06:43;16.20;;;9.77;;
20623;SDS011;10471;42.736;23.346;2023-02-21T06:09:09;16.30;;;7.83;;
20623;SDS011;10471;42.736;23.346;2023-02-21T06:11:36;13.00;;;6.80;;
20623;SDS011;10471;42.736;23.346;2023-02-21T06:14:03;15.60;;;6.37;;
20623;SDS011;10471;42.736;23.346;2023-02-21T06:16:39;11.40;;;5.23;;
20623;SDS011;10471;42.736;23.346;2023-02-21T06:19:05;11.57;;;4.73;;
20623;SDS011;10471;42.736;23.346;2023-02-21T06:21:32;13.73;;;6.23;;
20623;SDS011;10471;42.736;23.346;2023-02-21T06:23:59;8.23;;;4.07;;
20623;SDS011;10471;42.736;23.346;2023-02-21T06:26:25;12.30;;;4.67;;
20623;SDS011;10471;42.736;23.346;2023-02-21T06:28:51;7.70;;;4.37;;
20623;SDS011;10471;42.736;23.346;2023-02-21T06:31:17;7.30;;;4.00;;
20623;SDS011;10471;42.736;23.346;2023-02-21T06:33:43;9.90;;;4.57;;
20623;SDS011;10471;42.736;23.346;2023-02-21T06:36:13;8.27;;;3.80;;
20623;SDS011;10471;42.736;23.346;2023-02-21T06:38:44;12.87;;;5.63;;
20623;SDS011;10471;42.736;23.346;2023-02-21T06:41:13;9.13;;;3.90;;
20623;SDS011;10471;42.736;23.346;2023-02-21T06:43:39;7.27;;;3.43;;
20623;SDS011;10471;42.736;23.346;2023-02-21T06:46:05;12.70;;;4.80;;
20623;SDS011;10471;42.736;23.346;2023-02-21T06:48:30;11.33;;;5.07;;
20623;SDS011;10471;42.736;23.346;2023-02-21T06:50:56;7.47;;;3.63;;
20623;SDS011;10471;42.736;23.346;2023-02-21T06:53:21;10.13;;;5.07;;
20623;SDS011;10471;42.736;23.346;2023-02-21T06:55:46;10.20;;;5.23;;
20623;SDS011;10471;42.736;23.346;2023-02-21T06:58:12;11.57;;;4.60;;
20623;SDS011;10471;42.736;23.346;2023-02-21T07:00:37;7.67;;;4.37;;
20623;SDS011;10471;42.736;23.346;2023-02-21T07:03:03;12.00;;;4.03;;
20623;SDS011;10471;42.736;23.346;2023-02-21T07:05:28;6.70;;;3.60;;
20623;SDS011;10471;42.736;23.346;2023-02-21T07:07:58;13.50;;;5.43;;
20623;SDS011;10471;42.736;23.346;2023-02-21T07:10:24;11.70;;;4.90;;
20623;SDS011;10471;42.736;23.346;2023-02-21T07:12:50;9.43;;;3.83;;
20623;SDS011;10471;42.736;23.346;2023-02-21T07:15:15;8.40;;;3.43;;
20623;SDS011;10471;42.736;23.346;2023-02-21T07:17:40;8.67;;;4.53;;
20623;SDS011;10471;42.736;23.346;2023-02-21T07:20:06;6.27;;;3.33;;
20623;SDS011;10471;42.736;23.346;2023-02-21T07:22:31;11.33;;;4.40;;
20623;SDS011;10471;42.736;23.346;2023-02-21T07:24:57;7.03;;;3.10;;
20623;SDS011;10471;42.736;23.346;2023-02-21T07:27:22;5.73;;;3.27;;
20623;SDS011;10471;42.736;23.346;2023-02-21T07:29:48;12.43;;;3.47;;
20623;SDS011;10471;42.736;23.346;2023-02-21T07:32:14;10.73;;;3.33;;
20623;SDS011;10471;42.736;23.346;2023-02-21T07:34:41;8.90;;;4.50;;
20623;SDS011;10471;42.736;23.346;2023-02-21T07:37:06;7.87;;;3.50;;
20623;SDS011;10471;42.736;23.346;2023-02-21T07:39:32;9.93;;;3.70;;
20623;SDS011;10471;42.736;23.346;2023-02-21T07:41:57;7.93;;;4.27;;
20623;SDS011;10471;42.736;23.346;2023-02-21T07:44:23;10.07;;;4.93;;
20623;SDS011;10471;42.736;23.346;2023-02-21T07:46:48;10.27;;;4.10;;
20623;SDS011;10471;42.736;23.346;2023-02-21T07:49:14;11.87;;;5.57;;
20623;SDS011;10471;42.736;23.346;2023-02-21T07:51:39;14.40;;;5.13;;
20623;SDS011;10471;42.736;23.346;2023-02-21T07:54:05;13.57;;;6.13;;
20623;SDS011;10471;42.736;23.346;2023-02-21T07:56:30;12.23;;;6.13;;
20623;SDS011;10471;42.736;23.346;2023-02-21T07:58:55;17.20;;;6.43;;
20623;SDS011;10471;42.736;23.346;2023-02-21T08:01:21;11.37;;;4.10;;
20623;SDS011;10471;42.736;23.346;2023-02-21T08:03:49;23.67;;;11.13;;
20623;SDS011;10471;42.736;23.346;2023-02-21T08:06:14;16.47;;;4.87;;
20623;SDS011;10471;42.736;23.346;2023-02-21T08:08:39;8.53;;;4.23;;
20623;SDS011;10471;42.736;23.346;2023-02-21T08:11:05;13.03;;;5.00;;
20623;SDS011;10471;42.736;23.346;2023-02-21T08:13:30;8.83;;;3.20;;
20623;SDS011;10471;42.736;23.346;2023-02-21T08:15:56;8.10;;;4.17;;
20623;SDS011;10471;42.736;23.346;2023-02-21T08:18:21;7.90;;;3.50;;
20623;SDS011;10471;42.736;23.346;2023-02-21T08:20:54;13.63;;;3.63;;
20623;SDS011;10471;42.736;23.346;2023-02-21T08:23:21;9.13;;;4.10;;
20623;SDS011;10471;42.736;23.346;2023-02-21T08:25:47;14.10;;;4.07;;
20623;SDS011;10471;42.736;23.346;2023-02-21T08:28:13;10.43;;;4.70;;
20623;SDS011;10471;42.736;23.346;2023-02-21T08:30:38;14.20;;;4.10;;
20623;SDS011;10471;42.736;23.346;2023-02-21T08:33:04;12.60;;;4.40;;
20623;SDS011;10471;42.736;23.346;2023-02-21T08:35:30;9.70;;;3.87;;
20623;SDS011;10471;42.736;23.346;2023-02-21T08:37:55;11.43;;;4.33;;
20623;SDS011;10471;42.736;23.346;2023-02-21T08:40:21;9.70;;;4.40;;
20623;SDS011;10471;42.736;23.346;2023-02-21T08:42:51;8.97;;;3.80;;
20623;SDS011;10471;42.736;23.346;2023-02-21T08:45:18;10.53;;;4.37;;
20623;SDS011;10471;42.736;23.346;2023-02-21T08:47:45;24.17;;;9.37;;
20623;SDS011;10471;42.736;23.346;2023-02-21T08:50:11;31.57;;;13.97;;
20623;SDS011;10471;42.736;23.346;2023-02-21T08:52:37;30.03;;;12.97;;
20623;SDS011;10471;42.736;23.346;2023-02-21T08:55:03;28.03;;;11.93;;
20623;SDS011;10471;42.736;23.346;2023-02-21T08:57:29;31.73;;;12.27;;
20623;SDS011;10471;42.736;23.346;2023-02-21T08:59:55;28.53;;;11.53;;
20623;SDS011;10471;42.736;23.346;2023-02-21T09:02:21;44.93;;;16.10;;
20623;SDS011;10471;42.736;23.346;2023-02-21T09:04:52;28.03;;;9.60;;
20623;SDS011;10471;42.736;23.346;2023-02-21T09:07:19;21.47;;;8.30;;
20623;SDS011;10471;42.736;23.346;2023-02-21T09:09:46;25.80;;;9.63;;
20623;SDS011;10471;42.736;23.346;2023-02-21T09:12:12;26.20;;;10.00;;
20623;SDS011;10471;42.736;23.346;2023-02-21T09:14:38;24.60;;;10.77;;
20623;SDS011;10471;42.736;23.346;2023-02-21T09:17:06;28.90;;;12.50;;
20623;SDS011;10471;42.736;23.346;2023-02-21T09:19:33;26.37;;;10.43;;
20623;SDS011;10471;42.736;23.346;2023-02-21T09:21:59;27.47;;;11.70;;
20623;SDS011;10471;42.736;23.346;2023-02-21T09:24:25;24.03;;;10.10;;
20623;SDS011;10471;42.736;23.346;2023-02-21T09:26:51;21.97;;;9.70;;
20623;SDS011;10471;42.736;23.346;2023-02-21T09:29:23;27.03;;;10.40;;
20623;SDS011;10471;42.736;23.346;2023-02-21T09:31:49;21.63;;;9.30;;
20623;SDS011;10471;42.736;23.346;2023-02-21T09:34:15;18.13;;;8.83;;
20623;SDS011;10471;42.736;23.346;2023-02-21T09:36:40;15.80;;;8.57;;
20623;SDS011;10471;42.736;23.346;2023-02-21T09:39:06;20.23;;;9.10;;
20623;SDS011;10471;42.736;23.346;2023-02-21T09:41:32;14.27;;;8.10;;
20623;SDS011;10471;42.736;23.346;2023-02-21T09:43:59;19.00;;;8.20;;
20623;SDS011;10471;42.736;23.346;2023-02-21T09:49:05;18.03;;;8.47;;
20623;SDS011;10471;42.736;23.346;2023-02-21T09:51:36;19.60;;;7.77;;
20623;SDS011;10471;42.736;23.346;2023-02-21T09:54:05;16.73;;;8.17;;
20623;SDS011;10471;42.736;23.346;2023-02-21T09:56:42;23.37;;;8.60;;
20623;SDS011;10471;42.736;23.346;2023-02-21T09:59:10;20.83;;;8.13;;
20623;SDS011;10471;42.736;23.346;2023-02-21T10:01:56;16.30;;;7.33;;
20623;SDS011;10471;42.736;23.346;2023-02-21T10:10:17;16.10;;;7.60;;
20623;SDS011;10471;42.736;23.346;2023-02-21T10:12:54;17.50;;;7.50;;
20623;SDS011;10471;42.736;23.346;2023-02-21T10:21:27;5.90;;;2.00;;
20623;SDS011;10471;42.736;23.346;2023-02-21T10:23:53;4.63;;;1.73;;
20623;SDS011;10471;42.736;23.346;2023-02-21T10:26:28;5.10;;;2.07;;
20623;SDS011;10471;42.736;23.346;2023-02-21T10:28:58;4.57;;;2.33;;
20623;SDS011;10471;42.736;23.346;2023-02-21T10:33:56;7.27;;;3.13;;
20623;SDS011;10471;42.736;23.346;2023-02-21T10:36:23;5.47;;;2.70;;
20623;SDS011;10471;42.736;23.346;2023-02-21T10:41:21;9.00;;;2.23;;
20623;SDS011;10471;42.736;23.346;2023-02-21T10:43:48;5.37;;;2.23;;
20623;SDS011;10471;42.736;23.346;2023-02-21T10:46:22;5.23;;;1.90;;
20623;SDS011;10471;42.736;23.346;2023-02-21T10:48:53;3.13;;;1.97;;
20623;SDS011;10471;42.736;23.346;2023-02-21T10:51:33;6.37;;;2.27;;
20623;SDS011;10471;42.736;23.346;2023-02-21T10:54:18;4.93;;;2.07;;
20623;SDS011;10471;42.736;23.346;2023-02-21T10:56:46;6.37;;;2.60;;
20623;SDS011;10471;42.736;23.346;2023-02-21T10:59:18;9.90;;;2.50;;
20623;SDS011;10471;42.736;23.346;2023-02-21T11:01:45;2.80;;;1.90;;
20623;SDS011;10471;42.736;23.346;2023-02-21T11:06:39;7.80;;;2.60;;
20623;SDS011;10471;42.736;23.346;2023-02-21T11:12:01;4.60;;;2.30;;
20623;SDS011;10471;42.736;23.346;2023-02-21T11:14:30;5.67;;;2.50;;
20623;SDS011;10471;42.736;23.346;2023-02-21T11:17:17;5.07;;;2.13;;
20623;SDS011;10471;42.736;23.346;2023-02-21T11:22:37;5.47;;;2.20;;
20623;SDS011;10471;42.736;23.346;2023-02-21T11:33:25;7.10;;;2.20;;
20623;SDS011;10471;42.736;23.346;2023-02-21T11:35:53;3.13;;;1.67;;
20623;SDS011;10471;42.736;23.346;2023-02-21T11:38:36;4.10;;;1.70;;
20623;SDS011;10471;42.736;23.346;2023-02-21T11:41:15;5.00;;;2.00;;
20623;SDS011;10471;42.736;23.346;2023-02-21T11:43:47;5.80;;;1.80;;
20623;SDS011;10471;42.736;23.346;2023-02-21T11:46:33;4.47;;;2.23;;
20623;SDS011;10471;42.736;23.346;2023-02-21T11:49:25;3.53;;;2.13;;
20623;SDS011;10471;42.736;23.346;2023-02-21T11:52:12;4.07;;;1.57;;
20623;SDS011;10471;42.736;23.346;2023-02-21T11:54:42;4.43;;;1.70;;
20623;SDS011;10471;42.736;23.346;2023-02-21T12:30:38;4.27;;;1.57;;
20623;SDS011;10471;42.736;23.346;2023-02-21T12:33:19;3.47;;;1.67;;
20623;SDS011;10471;42.736;23.346;2023-02-21T12:36:05;3.27;;;2.40;;
20623;SDS011;10471;42.736;23.346;2023-02-21T12:44:22;2.37;;;1.97;;
20623;SDS011;10471;42.736;23.346;2023-02-21T12:47:16;5.97;;;2.10;;
20623;SDS011;10471;42.736;23.346;2023-02-21T12:54:51;7.30;;;1.97;;
20623;SDS011;10471;42.736;23.346;2023-02-21T12:57:26;2.73;;;1.70;;
20623;SDS011;10471;42.736;23.346;2023-02-21T13:00:04;2.03;;;1.67;;
20623;SDS011;10471;42.736;23.346;2023-02-21T13:05:37;6.17;;;2.23;;
20623;SDS011;10471;42.736;23.346;2023-02-21T13:08:19;3.23;;;2.13;;
20623;SDS011;10471;42.736;23.346;2023-02-21T13:10:55;3.23;;;1.90;;
20623;SDS011;10471;42.736;23.346;2023-02-21T13:13:26;4.57;;;2.40;;
20623;SDS011;10471;42.736;23.346;2023-02-21T13:15:56;3.87;;;1.70;;
20623;SDS011;10471;42.736;23.346;2023-02-21T13:18:43;3.87;;;2.07;;
20623;SDS011;10471;42.736;23.346;2023-02-21T13:27:38;5.73;;;1.90;;
20623;SDS011;10471;42.736;23.346;2023-02-21T13:32:55;2.07;;;1.70;;
20623;SDS011;10471;42.736;23.346;2023-02-21T13:35:30;2.20;;;1.53;;
20623;SDS011;10471;42.736;23.346;2023-02-21T13:38:05;3.13;;;1.60;;
20623;SDS011;10471;42.736;23.346;2023-02-21T13:40:51;2.83;;;1.70;;
20623;SDS011;10471;42.736;23.346;2023-02-21T13:43:22;4.70;;;1.60;;
20623;SDS011;10471;42.736;23.346;2023-02-21T13:45:48;2.77;;;2.33;;
20623;SDS011;10471;42.736;23.346;2023-02-21T13:48:19;5.90;;;2.60;;
20623;SDS011;10471;42.736;23.346;2023-02-21T13:50:52;3.97;;;1.70;;
20623;SDS011;10471;42.736;23.346;2023-02-21T14:01:20;5.80;;;2.90;;
20623;SDS011;10471;42.736;23.346;2023-02-21T14:03:51;2.67;;;1.83;;
20623;SDS011;10471;42.736;23.346;2023-02-21T14:06:31;5.80;;;3.03;;
20623;SDS011;10471;42.736;23.346;2023-02-21T14:09:17;5.87;;;2.10;;
20623;SDS011;10471;42.736;23.346;2023-02-21T14:11:47;4.90;;;1.80;;
20623;SDS011;10471;42.736;23.346;2023-02-21T14:14:47;5.43;;;2.20;;
20623;SDS011;10471;42.736;23.346;2023-02-21T14:17:11;4.07;;;2.37;;
20623;SDS011;10471;42.736;23.346;2023-02-21T14:22:13;4.17;;;1.90;;
20623;SDS011;10471;42.736;23.346;2023-02-21T14:24:45;4.00;;;1.70;;
20623;SDS011;10471;42.736;23.346;2023-02-21T14:29:39;4.33;;;2.17;;
20623;SDS011;10471;42.736;23.346;2023-02-21T14:39:46;8.77;;;2.30;;
20623;SDS011;10471;42.736;23.346;2023-02-21T15:10:09;5.73;;;2.40;;
20623;SDS011;10471;42.736;23.346;2023-02-21T15:12:42;4.10;;;2.73;;
20623;SDS011;10471;42.736;23.346;2023-02-21T15:23:45;11.10;;;5.57;;
20623;SDS011;10471;42.736;23.346;2023-02-21T15:26:30;9.77;;;4.60;;
20623;SDS011;10471;42.736;23.346;2023-02-21T15:31:39;17.37;;;9.00;;
20623;SDS011;10471;42.736;23.346;2023-02-21T15:34:17;5.67;;;2.80;;
20623;SDS011;10471;42.736;23.346;2023-02-21T15:36:43;10.23;;;5.80;;
20623;SDS011;10471;42.736;23.346;2023-02-21T15:39:14;10.23;;;5.13;;
20623;SDS011;10471;42.736;23.346;2023-02-21T15:41:48;18.07;;;11.20;;
20623;SDS011;10471;42.736;23.346;2023-02-21T15:46:45;10.83;;;6.97;;
20623;SDS011;10471;42.736;23.346;2023-02-21T15:49:21;7.13;;;3.87;;
20623;SDS011;10471;42.736;23.346;2023-02-21T15:51:50;7.33;;;3.87;;
20623;SDS011;10471;42.736;23.346;2023-02-21T15:56:42;14.37;;;8.40;;
20623;SDS011;10471;42.736;23.346;2023-02-21T16:01:33;9.50;;;5.60;;
20623;SDS011;10471;42.736;23.346;2023-02-21T16:04:21;10.30;;;5.90;;
20623;SDS011;10471;42.736;23.346;2023-02-21T16:06:53;12.50;;;7.23;;
20623;SDS011;10471;42.736;23.346;2023-02-21T16:09:28;11.97;;;6.73;;
20623;SDS011;10471;42.736;23.346;2023-02-21T16:12:21;17.30;;;9.60;;
20623;SDS011;10471;42.736;23.346;2023-02-21T16:14:57;15.03;;;8.07;;
20623;SDS011;10471;42.736;23.346;2023-02-21T16:17:32;14.07;;;9.70;;
20623;SDS011;10471;42.736;23.346;2023-02-21T16:20:46;20.57;;;10.33;;
20623;SDS011;10471;42.736;23.346;2023-02-21T16:22:50;21.20;;;11.17;;
20623;SDS011;10471;42.736;23.346;2023-02-21T16:28:25;33.93;;;17.23;;
20623;SDS011;10471;42.736;23.346;2023-02-21T16:30:51;48.20;;;23.13;;
20623;SDS011;10471;42.736;23.346;2023-02-21T16:33:19;44.53;;;21.13;;
20623;SDS011;10471;42.736;23.346;2023-02-21T16:35:45;15.97;;;9.50;;
20623;SDS011;10471;42.736;23.346;2023-02-21T16:38:15;17.33;;;9.40;;
20623;SDS011;10471;42.736;23.346;2023-02-21T16:40:42;17.33;;;11.20;;
20623;SDS011;10471;42.736;23.346;2023-02-21T16:43:07;16.13;;;9.27;;
20623;SDS011;10471;42.736;23.346;2023-02-21T16:45:41;22.70;;;12.00;;
20623;SDS011;10471;42.736;23.346;2023-02-21T16:48:09;36.80;;;18.17;;
20623;SDS011;10471;42.736;23.346;2023-02-21T16:50:40;48.37;;;20.63;;
20623;SDS011;10471;42.736;23.346;2023-02-21T16:53:06;272.10;;;94.87;;
20623;SDS011;10471;42.736;23.346;2023-02-21T16:55:36;257.43;;;92.83;;
20623;SDS011;10471;42.736;23.346;2023-02-21T16:58:02;199.10;;;80.17;;
20623;SDS011;10471;42.736;23.346;2023-02-21T17:00:30;45.30;;;19.67;;
20623;SDS011;10471;42.736;23.346;2023-02-21T17:02:57;36.10;;;15.57;;
20623;SDS011;10471;42.736;23.346;2023-02-21T17:05:22;38.43;;;17.63;;
20623;SDS011;10471;42.736;23.346;2023-02-21T17:07:51;70.27;;;27.30;;
20623;SDS011;10471;42.736;23.346;2023-02-21T17:10:21;94.20;;;34.27;;
20623;SDS011;10471;42.736;23.346;2023-02-21T17:12:48;112.37;;;36.73;;
20623;SDS011;10471;42.736;23.346;2023-02-21T17:15:14;79.67;;;30.57;;
20623;SDS011;10471;42.736;23.346;2023-02-21T17:17:39;61.43;;;24.23;;
20623;SDS011;10471;42.736;23.346;2023-02-21T17:20:06;47.77;;;20.10;;
20623;SDS011;10471;42.736;23.346;2023-02-21T17:22:32;59.27;;;25.40;;
20623;SDS011;10471;42.736;23.346;2023-02-21T17:24:58;75.47;;;31.17;;
20623;SDS011;10471;42.736;23.346;2023-02-21T17:27:24;51.80;;;22.80;;
20623;SDS011;10471;42.736;23.346;2023-02-21T17:29:49;47.47;;;20.00;;
20623;SDS011;10471;42.736;23.346;2023-02-21T17:32:15;46.77;;;19.70;;
20623;SDS011;10471;42.736;23.346;2023-02-21T17:34:41;35.13;;;15.87;;
20623;SDS011;10471;42.736;23.346;2023-02-21T17:37:07;29.07;;;12.73;;
20623;SDS011;10471;42.736;23.346;2023-02-21T17:39:33;22.10;;;10.90;;
20623;SDS011;10471;42.736;23.346;2023-02-21T17:41:59;34.93;;;16.90;;
20623;SDS011;10471;42.736;23.346;2023-02-21T17:44:24;48.60;;;20.83;;
20623;SDS011;10471;42.736;23.346;2023-02-21T17:46:51;55.10;;;24.87;;
20623;SDS011;10471;42.736;23.346;2023-02-21T17:49:20;68.10;;;26.90;;
20623;SDS011;10471;42.736;23.346;2023-02-21T17:51:47;57.27;;;25.57;;
20623;SDS011;10471;42.736;23.346;2023-02-21T17:54:13;63.70;;;27.10;;
20623;SDS011;10471;42.736;23.346;2023-02-21T17:56:39;63.60;;;30.00;;
20623;SDS011;10471;42.736;23.346;2023-02-21T17:59:05;37.97;;;18.93;;
20623;SDS011;10471;42.736;23.346;2023-02-21T18:01:30;52.57;;;25.70;;
20623;SDS011;10471;42.736;23.346;2023-02-21T18:03:56;59.67;;;26.30;;
20623;SDS011;10471;42.736;23.346;2023-02-21T18:06:21;43.80;;;24.10;;